createdAt,value
2018-12-14T00:00:22.223Z,18.53
2018-12-14T00:02:51.035Z,17.57
2018-12-14T00:05:19.834Z,18.37
2018-12-14T00:07:48.647Z,18.73
2018-12-14T00:10:17.443Z,20.07
2018-12-14T00:12:46.492Z,18.00
2018-12-14T00:15:15.295Z,18.60
2018-12-14T00:17:44.080Z,19.97
2018-12-14T00:20:12.872Z,20.20
2018-12-14T00:22:41.677Z,17.83
2018-12-14T00:25:10.470Z,19.50
2018-12-14T00:27:39.268Z,19.60
2018-12-14T00:30:08.874Z,19.57
2018-12-14T00:32:37.668Z,19.03
2018-12-14T00:35:06.595Z,19.93
2018-12-14T00:37:35.391Z,19.87
2018-12-14T00:40:04.501Z,21.10
2018-12-14T00:42:33.309Z,19.33
2018-12-14T00:45:02.102Z,20.40
2018-12-14T00:47:30.890Z,21.20
2018-12-14T00:49:59.687Z,20.80
2018-12-14T00:52:28.493Z,21.87
2018-12-14T00:54:57.306Z,20.70
2018-12-14T00:57:26.111Z,20.53
2018-12-14T00:59:54.916Z,21.17
2018-12-14T01:02:29.651Z,20.37
2018-12-14T01:04:58.503Z,20.47
2018-12-14T01:07:27.357Z,21.27
2018-12-14T01:09:56.150Z,20.43
2018-12-14T01:12:24.996Z,19.47
2018-12-14T01:14:53.801Z,20.83
2018-12-14T01:17:22.607Z,21.73
2018-12-14T01:19:51.713Z,21.50
2018-12-14T01:22:20.566Z,20.77
2018-12-14T01:24:49.376Z,21.43
2018-12-14T01:27:18.176Z,21.63
2018-12-14T01:29:47.021Z,21.20
2018-12-14T01:32:15.830Z,22.17
2018-12-14T01:34:44.714Z,22.10
2018-12-14T01:37:13.488Z,21.73
2018-12-14T01:39:42.277Z,22.67
2018-12-14T01:42:11.078Z,21.63
2018-12-14T01:44:39.976Z,21.20
2018-12-14T01:47:08.815Z,22.23
2018-12-14T01:49:37.632Z,20.90
2018-12-14T01:52:06.441Z,21.03
2018-12-14T01:54:35.224Z,22.07
2018-12-14T01:57:04.015Z,22.83
2018-12-14T01:59:33.359Z,23.67
2018-12-14T02:02:02.147Z,22.77
2018-12-14T02:04:31.268Z,21.87
2018-12-14T02:07:00.048Z,21.53
2018-12-14T02:09:28.855Z,20.60
2018-12-14T02:11:57.643Z,22.57
2018-12-14T02:14:26.457Z,22.97
2018-12-14T02:16:55.254Z,21.60
2018-12-14T02:19:24.112Z,22.10
2018-12-14T02:21:52.919Z,22.37
2018-12-14T02:24:21.735Z,22.77
2018-12-14T02:26:50.527Z,22.70
2018-12-14T02:29:19.322Z,22.50
2018-12-14T02:31:48.126Z,23.13
2018-12-14T02:34:16.927Z,23.43
2018-12-14T02:36:45.714Z,23.90
2018-12-14T02:39:14.507Z,23.93
2018-12-14T02:41:43.302Z,24.83
2018-12-14T02:44:12.104Z,22.60
2018-12-14T02:46:40.898Z,24.67
2018-12-14T02:49:09.694Z,23.53
2018-12-14T02:51:38.483Z,25.63
2018-12-14T02:54:07.273Z,22.70
2018-12-14T02:56:36.088Z,23.70
2018-12-14T02:59:04.892Z,23.10
2018-12-14T03:01:34.179Z,24.37
2018-12-14T03:04:02.992Z,25.13
2018-12-14T03:06:32.514Z,25.43
2018-12-14T03:09:01.297Z,24.57
2018-12-14T03:11:30.133Z,26.40
2018-12-14T03:13:58.971Z,25.07
2018-12-14T03:16:27.769Z,24.70
2018-12-14T03:18:56.556Z,25.50
2018-12-14T03:21:25.430Z,25.80
2018-12-14T03:23:54.234Z,25.07
2018-12-14T03:26:23.062Z,25.53
2018-12-14T03:28:51.867Z,32.50
2018-12-14T03:31:20.678Z,28.67
2018-12-14T03:33:49.454Z,26.10
2018-12-14T03:36:19.162Z,26.60
2018-12-14T03:38:47.939Z,28.20
2018-12-14T03:41:16.826Z,24.77
2018-12-14T03:43:45.544Z,23.70
2018-12-14T03:46:14.329Z,26.87
2018-12-14T03:48:43.104Z,27.27
2018-12-14T03:51:11.904Z,25.33
2018-12-14T03:53:40.743Z,27.27
2018-12-14T03:56:09.625Z,26.83
2018-12-14T03:58:38.390Z,25.07
2018-12-14T04:01:07.177Z,28.70
2018-12-14T04:03:36.683Z,26.97
2018-12-14T04:06:05.491Z,27.67
2018-12-14T04:08:34.283Z,26.90
2018-12-14T04:11:03.058Z,27.47
2018-12-14T04:13:31.916Z,28.67
2018-12-14T04:16:00.700Z,25.43
2018-12-14T04:18:29.595Z,27.87
2018-12-14T04:20:58.367Z,26.90
2018-12-14T04:23:27.177Z,27.47
2018-12-14T04:25:55.967Z,26.97
2018-12-14T04:28:24.759Z,27.67
2018-12-14T04:30:53.558Z,27.97
2018-12-14T04:33:22.455Z,28.83
2018-12-14T04:35:51.277Z,28.27
2018-12-14T04:38:20.103Z,28.00
2018-12-14T04:40:48.891Z,29.63
2018-12-14T04:43:17.742Z,26.70
2018-12-14T04:45:46.890Z,28.73
2018-12-14T04:48:15.680Z,28.70
2018-12-14T04:50:44.512Z,27.33
2018-12-14T04:53:13.298Z,27.63
2018-12-14T04:55:42.134Z,28.53
2018-12-14T04:58:10.922Z,28.87
2018-12-14T05:00:39.722Z,28.80
2018-12-14T05:03:08.499Z,27.37
2018-12-14T05:05:37.296Z,27.93
2018-12-14T05:08:06.083Z,29.40
2018-12-14T05:10:34.862Z,28.27
2018-12-14T05:13:03.980Z,27.37
2018-12-14T05:15:32.838Z,28.83
2018-12-14T05:18:01.612Z,27.90
2018-12-14T05:20:30.828Z,29.23
2018-12-14T05:22:59.714Z,29.10
2018-12-14T05:25:28.494Z,29.67
2018-12-14T05:27:57.278Z,28.60
2018-12-14T05:30:26.081Z,28.33
2018-12-14T05:32:54.956Z,29.83
2018-12-14T05:35:23.775Z,28.33
2018-12-14T05:37:52.810Z,27.40
2018-12-14T05:40:21.617Z,29.63
2018-12-14T05:42:50.420Z,30.20
2018-12-14T05:45:19.231Z,29.70
2018-12-14T05:47:48.322Z,28.70
2018-12-14T05:50:17.123Z,28.93
2018-12-14T05:52:45.907Z,29.73
2018-12-14T05:55:14.712Z,29.70
2018-12-14T05:57:43.537Z,37.20
2018-12-14T06:00:12.669Z,31.23
2018-12-14T06:02:41.494Z,28.90
2018-12-14T06:05:10.291Z,30.73
2018-12-14T06:07:39.390Z,29.83
2018-12-14T06:10:08.712Z,28.80
2018-12-14T06:12:38.734Z,28.90
2018-12-14T06:15:07.518Z,30.53
2018-12-14T06:17:36.325Z,30.00
2018-12-14T06:20:05.654Z,30.23
2018-12-14T06:22:35.063Z,28.47
2018-12-14T06:25:03.910Z,31.10
2018-12-14T06:27:33.380Z,29.37
2018-12-14T06:30:02.217Z,28.37
2018-12-14T06:32:32.351Z,29.57
2018-12-14T06:35:01.426Z,28.00
2018-12-14T06:37:30.209Z,31.17
2018-12-14T06:39:59.096Z,28.80
2018-12-14T06:42:27.940Z,30.60
2018-12-14T06:44:56.785Z,29.30
2018-12-14T06:47:25.603Z,30.93
2018-12-14T06:49:54.460Z,31.00
2018-12-14T06:52:23.290Z,30.10
2018-12-14T06:54:52.101Z,29.30
2018-12-14T06:57:20.935Z,30.70
2018-12-14T06:59:50.854Z,30.80
2018-12-14T07:02:19.997Z,26.83
2018-12-14T07:04:48.790Z,29.53
2018-12-14T07:07:17.576Z,29.53
2018-12-14T07:09:46.383Z,31.70
2018-12-14T07:12:15.223Z,30.87
2018-12-14T07:14:44.004Z,30.47
2018-12-14T07:17:12.893Z,27.87
2018-12-14T07:19:41.627Z,29.77
2018-12-14T07:22:10.435Z,32.17
2018-12-14T07:24:39.230Z,27.67
2018-12-14T07:27:08.031Z,28.10
2018-12-14T07:29:36.827Z,28.73
2018-12-14T07:32:06.820Z,30.77
2018-12-14T07:34:35.619Z,29.90
2018-12-14T07:37:04.441Z,27.43
2018-12-14T07:39:33.269Z,27.10
2018-12-14T07:42:02.319Z,27.30
2018-12-14T07:44:31.245Z,28.47
2018-12-14T07:47:00.002Z,29.33
2018-12-14T07:49:28.807Z,28.93
2018-12-14T07:51:57.599Z,29.03
2018-12-14T07:54:26.409Z,28.07
2018-12-14T07:56:55.794Z,30.37
2018-12-14T07:59:24.063Z,28.70
2018-12-14T08:01:52.984Z,28.53
2018-12-14T08:04:21.824Z,27.00
2018-12-14T08:06:50.660Z,26.17
2018-12-14T08:09:19.468Z,25.93
2018-12-14T08:11:48.299Z,25.00
2018-12-14T08:14:17.140Z,27.10
2018-12-14T08:16:45.949Z,28.37
2018-12-14T08:19:14.774Z,25.50
2018-12-14T08:21:43.584Z,27.50
2018-12-14T08:24:12.375Z,25.77
2018-12-14T08:26:41.198Z,25.87
2018-12-14T08:29:09.979Z,27.17
2018-12-14T08:31:39.319Z,27.73
2018-12-14T08:34:08.149Z,28.00
2018-12-14T08:36:36.946Z,26.53
2018-12-14T08:39:07.304Z,27.97
2018-12-14T08:41:36.124Z,28.67
2018-12-14T08:44:04.961Z,26.70
2018-12-14T08:46:33.751Z,26.87
2018-12-14T08:49:02.544Z,27.20
2018-12-14T08:51:31.357Z,27.60
2018-12-14T08:54:00.143Z,25.20
2018-12-14T08:56:28.936Z,28.17
2018-12-14T08:58:57.768Z,28.40
2018-12-14T09:01:26.566Z,26.63
2018-12-14T09:03:55.347Z,24.70
2018-12-14T09:06:24.208Z,27.40
2018-12-14T09:08:52.994Z,27.93
2018-12-14T09:11:21.811Z,26.33
2018-12-14T09:13:50.633Z,27.20
2018-12-14T09:16:19.443Z,28.73
2018-12-14T09:18:48.247Z,26.97
2018-12-14T09:21:17.484Z,27.50
2018-12-14T09:23:46.340Z,26.73
2018-12-14T09:26:15.163Z,28.47
2018-12-14T09:28:44.620Z,26.07
2018-12-14T09:31:13.440Z,29.63
2018-12-14T09:33:42.222Z,28.23
2018-12-14T09:36:11.030Z,27.97
2018-12-14T09:38:39.909Z,29.37
2018-12-14T09:41:08.757Z,28.70
2018-12-14T09:43:37.559Z,29.27
2018-12-14T09:46:06.375Z,28.90
2018-12-14T09:48:35.203Z,28.90
2018-12-14T09:51:04.356Z,28.50
2018-12-14T09:53:33.219Z,25.43
2018-12-14T09:56:02.127Z,27.97
2018-12-14T09:58:30.909Z,28.93
2018-12-14T10:00:59.780Z,29.27
2018-12-14T10:03:28.603Z,24.93
2018-12-14T10:05:57.411Z,29.33
2018-12-14T10:08:26.248Z,26.77
2018-12-14T10:10:55.858Z,29.00
2018-12-14T10:13:24.667Z,28.67
2018-12-14T10:15:53.490Z,26.07
2018-12-14T10:18:22.399Z,26.67
2018-12-14T10:20:51.179Z,26.70
2018-12-14T10:23:20.007Z,27.60
2018-12-14T10:25:49.029Z,28.10
2018-12-14T10:28:17.828Z,28.70
2018-12-14T10:30:46.672Z,27.83
2018-12-14T10:33:15.468Z,23.73
2018-12-14T10:35:44.271Z,26.20
2018-12-14T10:38:13.888Z,24.23
2018-12-14T10:40:42.693Z,26.50
2018-12-14T10:43:11.495Z,26.27
2018-12-14T10:45:40.300Z,27.90
2018-12-14T10:48:09.111Z,25.57
2018-12-14T10:50:39.753Z,25.63
2018-12-14T10:53:12.607Z,25.23
2018-12-14T10:55:41.663Z,25.00
2018-12-14T10:58:11.580Z,26.00
2018-12-14T11:00:45.854Z,25.73
2018-12-14T11:03:17.630Z,26.13
2018-12-14T11:05:46.453Z,26.57
2018-12-14T11:08:15.257Z,26.13
2018-12-14T11:10:44.039Z,23.60
2018-12-14T11:13:12.830Z,26.67
2018-12-14T11:15:41.672Z,26.57
2018-12-14T11:18:10.483Z,25.53
2018-12-14T11:20:39.286Z,26.17
2018-12-14T11:23:08.083Z,24.63
2018-12-14T11:25:37.035Z,23.87
2018-12-14T11:28:05.903Z,23.73
2018-12-14T11:30:34.706Z,26.10
2018-12-14T11:33:03.906Z,26.10
2018-12-14T11:35:33.095Z,25.57
2018-12-14T11:38:01.882Z,25.30
2018-12-14T11:40:30.713Z,26.80
2018-12-14T11:42:59.499Z,27.00
2018-12-14T11:45:28.309Z,26.83
2018-12-14T11:47:57.100Z,27.87
2018-12-14T11:50:25.943Z,25.93
2018-12-14T11:52:54.758Z,25.20
2018-12-14T11:55:23.614Z,25.97
2018-12-14T11:57:52.420Z,26.73
2018-12-14T12:00:21.223Z,25.87
2018-12-14T12:02:50.026Z,25.43
2018-12-14T12:05:18.828Z,27.67
2018-12-14T12:07:47.627Z,24.33
2018-12-14T12:10:16.449Z,27.30
2018-12-14T12:12:45.236Z,27.03
2018-12-14T12:15:14.628Z,26.93
2018-12-14T12:17:49.249Z,26.80
2018-12-14T12:20:12.232Z,25.90
2018-12-14T12:22:41.023Z,26.47
2018-12-14T12:25:09.839Z,28.03
2018-12-14T12:27:38.640Z,27.23
2018-12-14T12:30:08.459Z,27.53
2018-12-14T12:32:37.307Z,24.23
2018-12-14T12:35:06.153Z,27.43
2018-12-14T12:37:34.972Z,25.67
2018-12-14T12:40:03.819Z,25.50
2018-12-14T12:42:32.622Z,28.27
2018-12-14T12:45:01.432Z,27.37
2018-12-14T12:47:30.208Z,25.93
2018-12-14T12:49:59.011Z,24.87
2018-12-14T12:52:27.798Z,25.57
2018-12-14T12:54:56.596Z,26.63
2018-12-14T12:57:25.391Z,25.77
2018-12-14T12:59:54.170Z,26.57
2018-12-14T13:02:23.050Z,28.07
2018-12-14T13:04:51.855Z,23.97
2018-12-14T13:07:20.733Z,26.03
2018-12-14T13:09:49.536Z,24.83
2018-12-14T13:12:18.340Z,26.10
2018-12-14T13:14:47.134Z,27.43
2018-12-14T13:17:15.943Z,25.83
2018-12-14T13:19:44.770Z,26.70
2018-12-14T13:22:13.591Z,25.33
2018-12-14T13:24:42.385Z,24.63
2018-12-14T13:27:11.203Z,25.93
2018-12-14T13:29:40.031Z,22.17
2018-12-14T13:32:08.820Z,24.60
2018-12-14T13:34:37.627Z,24.17
2018-12-14T13:37:06.511Z,23.80
2018-12-14T13:39:35.334Z,23.13
2018-12-14T13:42:04.122Z,22.70
2018-12-14T13:44:33.302Z,23.30
2018-12-14T13:47:02.195Z,21.87
2018-12-14T13:49:30.914Z,22.37
2018-12-14T13:52:00.568Z,21.93
2018-12-14T13:54:29.366Z,23.67
2018-12-14T13:56:58.153Z,21.83
2018-12-14T13:59:26.943Z,22.53
2018-12-14T14:01:55.817Z,21.03
2018-12-14T14:04:24.600Z,21.57
2018-12-14T14:06:53.411Z,23.90
2018-12-14T14:09:22.208Z,22.77
2018-12-14T14:11:51.007Z,22.37
2018-12-14T14:14:19.804Z,22.47
2018-12-14T14:16:48.610Z,22.03
2018-12-14T14:19:17.423Z,22.77
2018-12-14T14:21:46.223Z,20.43
2018-12-14T14:24:15.555Z,22.27
2018-12-14T14:26:44.698Z,21.27
2018-12-14T14:29:13.130Z,22.17
2018-12-14T14:31:41.975Z,21.60
2018-12-14T14:34:10.774Z,21.03
2018-12-14T14:36:39.587Z,21.10
2018-12-14T14:39:08.428Z,20.90
2018-12-14T14:41:37.251Z,20.03
2018-12-14T14:44:06.043Z,21.60
2018-12-14T14:46:35.845Z,21.93
2018-12-14T14:49:04.698Z,20.50
2018-12-14T14:51:33.495Z,20.63
2018-12-14T14:54:02.320Z,18.77
2018-12-14T14:56:31.746Z,19.93
2018-12-14T14:59:00.566Z,20.27
2018-12-14T15:01:29.381Z,21.20
2018-12-14T15:03:58.206Z,19.30
2018-12-14T15:06:26.999Z,19.40
2018-12-14T15:08:55.782Z,20.47
2018-12-14T15:11:24.587Z,21.20
2018-12-14T15:13:53.370Z,19.67
2018-12-14T15:16:22.196Z,19.37
2018-12-14T15:18:50.987Z,19.53
2018-12-14T15:21:19.787Z,17.57
2018-12-14T15:23:49.168Z,19.27
2018-12-14T15:26:17.967Z,17.53
2018-12-14T15:28:46.766Z,17.33
2018-12-14T15:31:15.556Z,17.13
2018-12-14T15:33:44.595Z,18.57
2018-12-14T15:36:13.390Z,17.73
2018-12-14T15:38:42.272Z,17.50
2018-12-14T15:41:11.042Z,17.20
2018-12-14T15:45:13.271Z,17.63
2018-12-14T15:47:40.027Z,18.30
2018-12-14T15:50:08.844Z,18.90
2018-12-14T15:52:37.637Z,19.03
2018-12-14T15:55:06.727Z,17.10
2018-12-14T15:57:35.536Z,18.67
2018-12-14T16:00:04.552Z,18.10
2018-12-14T16:02:33.587Z,17.50
2018-12-14T16:05:02.420Z,15.77
2018-12-14T16:07:31.284Z,16.20
2018-12-14T16:10:00.108Z,15.80
2018-12-14T16:12:30.246Z,14.00
2018-12-14T16:14:59.071Z,16.03
2018-12-14T16:17:27.864Z,17.60
2018-12-14T16:19:56.681Z,14.53
2018-12-14T16:22:25.489Z,15.30
2018-12-14T16:24:54.388Z,15.33
2018-12-14T16:27:23.353Z,15.27
2018-12-14T16:29:52.249Z,14.50
2018-12-14T16:32:21.043Z,15.50
2018-12-14T16:34:49.885Z,15.33
2018-12-14T16:37:18.692Z,15.97
2018-12-14T16:39:48.496Z,16.53
2018-12-14T16:42:17.303Z,16.53
2018-12-14T16:44:46.118Z,16.83
2018-12-14T16:47:15.124Z,16.90
2018-12-14T16:49:43.924Z,17.50
2018-12-14T16:52:12.723Z,14.60
2018-12-14T16:54:41.566Z,16.40
2018-12-14T16:57:10.353Z,15.63
2018-12-14T16:59:39.363Z,16.00
2018-12-14T17:02:08.265Z,15.53
2018-12-14T17:04:37.079Z,16.83
2018-12-14T17:07:05.884Z,15.93
2018-12-14T17:09:34.728Z,14.67
2018-12-14T17:12:03.543Z,13.93
2018-12-14T17:14:32.404Z,16.30
2018-12-14T17:17:02.510Z,15.77
2018-12-14T17:19:32.506Z,16.50
2018-12-14T17:22:01.306Z,17.07
2018-12-14T17:24:31.052Z,17.40
2018-12-14T17:26:59.931Z,17.67
2018-12-14T17:29:30.803Z,17.83
2018-12-14T17:31:59.935Z,17.73
2018-12-14T17:34:28.742Z,17.27
2018-12-14T17:36:57.544Z,16.80
2018-12-14T17:39:27.246Z,21.23
2018-12-14T17:41:56.032Z,20.23
2018-12-14T17:44:24.820Z,18.40
2018-12-14T17:46:53.607Z,16.20
2018-12-14T17:49:22.593Z,17.63
2018-12-14T17:51:51.523Z,18.23
2018-12-14T17:54:20.403Z,18.77
2018-12-14T17:56:49.784Z,16.83
2018-12-14T17:59:19.298Z,18.07
2018-12-14T18:01:48.995Z,18.60
2018-12-14T18:04:18.115Z,18.63
2018-12-14T18:06:47.008Z,17.80
2018-12-14T18:09:17.119Z,16.60
2018-12-14T18:11:45.940Z,21.23
2018-12-14T18:14:14.804Z,24.40
2018-12-14T18:16:43.584Z,26.60
2018-12-14T18:19:12.663Z,19.67
2018-12-14T18:21:41.403Z,21.80
2018-12-14T18:24:10.211Z,21.57
2018-12-14T18:26:39.074Z,20.20
2018-12-14T18:29:07.859Z,19.50
2018-12-14T18:31:36.681Z,17.30
2018-12-14T18:34:05.551Z,19.67
2018-12-14T18:36:34.371Z,19.03
2018-12-14T18:39:03.211Z,18.20
2018-12-14T18:41:32.867Z,16.80
2018-12-14T18:44:01.935Z,17.33
2018-12-14T18:46:31.198Z,18.70
2018-12-14T18:48:59.994Z,18.70
2018-12-14T18:51:28.822Z,18.93
2018-12-14T18:53:59.881Z,19.87
2018-12-14T18:56:29.713Z,18.13
2018-12-14T18:58:59.744Z,19.07
2018-12-14T19:01:28.526Z,19.17
2018-12-14T19:03:57.452Z,19.53
2018-12-14T19:06:26.235Z,19.53
2018-12-14T19:08:55.028Z,19.67
2018-12-14T19:11:23.828Z,20.80
2018-12-14T19:13:52.625Z,20.07
2018-12-14T19:16:21.419Z,20.73
2018-12-14T19:18:50.212Z,19.97
2018-12-14T19:21:18.991Z,22.10
2018-12-14T19:23:47.800Z,21.93
2018-12-14T19:26:16.598Z,20.70
2018-12-14T19:28:46.539Z,21.50
2018-12-14T19:31:15.347Z,20.87
2018-12-14T19:33:44.167Z,19.90
2018-12-14T19:36:12.984Z,21.03
2018-12-14T19:38:41.791Z,20.90
2018-12-14T19:41:11.323Z,21.73
2018-12-14T19:43:41.325Z,21.50
2018-12-14T19:46:10.154Z,20.83
2018-12-14T19:48:39.041Z,21.63
2018-12-14T19:51:07.831Z,20.73
2018-12-14T19:53:36.611Z,22.73
2018-12-14T19:56:05.404Z,21.30
2018-12-14T19:58:34.296Z,21.37
2018-12-14T20:01:03.108Z,21.63
2018-12-14T20:03:32.655Z,22.33
2018-12-14T20:06:01.459Z,21.17
2018-12-14T20:08:30.600Z,22.67
2018-12-14T20:10:59.780Z,22.43
2018-12-14T20:13:28.972Z,20.97
2018-12-14T20:15:57.956Z,21.57
2018-12-14T20:18:26.755Z,24.00
2018-12-14T20:20:55.548Z,24.23
2018-12-14T20:23:24.488Z,23.17
2018-12-14T20:25:53.670Z,22.33
2018-12-14T20:28:22.587Z,22.70
2018-12-14T20:30:51.386Z,22.70
2018-12-14T20:33:20.182Z,22.23
2018-12-14T20:35:48.991Z,21.90
2018-12-14T20:38:17.815Z,24.37
2018-12-14T20:40:46.615Z,24.53
2018-12-14T20:43:15.414Z,23.53
2018-12-14T20:45:44.211Z,25.73
2018-12-14T20:48:13.700Z,26.87
2018-12-14T20:50:42.496Z,24.23
2018-12-14T20:53:11.318Z,26.07
2018-12-14T20:55:40.446Z,25.83
2018-12-14T20:58:09.296Z,24.93
2018-12-14T21:00:38.245Z,23.80
2018-12-14T21:03:10.630Z,24.27
2018-12-14T21:05:39.426Z,25.57
2018-12-14T21:08:08.216Z,24.50
2018-12-14T21:10:37.064Z,24.43
2018-12-14T21:13:05.884Z,26.07
2018-12-14T21:15:34.742Z,25.67
2018-12-14T21:18:03.541Z,27.37
2018-12-14T21:20:32.332Z,24.87
2018-12-14T21:23:01.127Z,26.27
2018-12-14T21:25:30.011Z,25.60
2018-12-14T21:27:58.796Z,24.83
2018-12-14T21:30:27.584Z,25.87
2018-12-14T21:32:56.375Z,25.60
2018-12-14T21:35:25.160Z,25.67
2018-12-14T21:37:53.956Z,24.57
2018-12-14T21:40:22.796Z,24.70
2018-12-14T21:42:51.620Z,25.40
2018-12-14T21:45:20.413Z,26.27
2018-12-14T21:47:50.098Z,26.33
2018-12-14T21:50:19.601Z,26.30
2018-12-14T21:52:48.446Z,25.53
2018-12-14T21:55:18.242Z,25.83
2018-12-14T21:57:47.943Z,25.83
2018-12-14T22:00:16.806Z,26.57
2018-12-14T22:02:45.623Z,25.63
2018-12-14T22:05:14.508Z,26.17
2018-12-14T22:07:43.339Z,25.97
2018-12-14T22:10:13.004Z,26.30
2018-12-14T22:12:41.803Z,24.83
2018-12-14T22:15:10.992Z,26.33
2018-12-14T22:17:39.778Z,26.43
2018-12-14T22:20:08.575Z,25.80
2018-12-14T22:22:37.691Z,25.20
2018-12-14T22:25:06.519Z,24.50
2018-12-14T22:27:35.327Z,26.77
2018-12-14T22:30:04.171Z,24.17
2018-12-14T22:32:34.315Z,24.27
2018-12-14T22:35:03.866Z,26.00
2018-12-14T22:37:33.271Z,25.80
2018-12-14T22:40:02.118Z,26.33
2018-12-14T22:42:32.598Z,23.27
2018-12-14T22:45:01.398Z,23.87
2018-12-14T22:47:30.264Z,24.27
2018-12-14T22:49:59.153Z,25.90
2018-12-14T22:52:28.096Z,23.43
2018-12-14T22:54:57.546Z,24.87
2018-12-14T22:57:26.338Z,25.03
2018-12-14T22:59:55.354Z,24.80
2018-12-14T23:02:24.202Z,24.87
2018-12-14T23:04:53.110Z,24.27
2018-12-14T23:07:21.991Z,25.50
2018-12-14T23:09:50.875Z,25.90
2018-12-14T23:12:19.664Z,31.37
2018-12-14T23:14:48.471Z,26.50
2018-12-14T23:17:17.342Z,24.73
2018-12-14T23:19:46.139Z,26.10
2018-12-14T23:22:15.532Z,25.53
2018-12-14T23:24:44.347Z,25.17
2018-12-14T23:27:13.148Z,26.30
2018-12-14T23:29:42.278Z,28.30
2018-12-14T23:32:11.115Z,26.57
2018-12-14T23:34:39.915Z,27.03
2018-12-14T23:37:13.840Z,24.27
2018-12-14T23:39:37.537Z,30.30
2018-12-14T23:42:06.671Z,25.20
2018-12-14T23:44:35.466Z,26.40
2018-12-14T23:47:04.281Z,30.70
2018-12-14T23:49:33.717Z,26.47
2018-12-14T23:52:02.535Z,25.63
2018-12-14T23:54:31.939Z,26.07
2018-12-14T23:57:00.745Z,25.47
2018-12-14T23:59:29.558Z,25.33
